Time;durP1;ratioP1;P1;durP2;ratioP2;P2;SDS_P1;SDS_P2;PMS_P1;PMS_P2;Temp;Humidity;BMP_temperature;BMP_pressure;BME280_temperature;BME280_humidity;BME280_pressure;Samples;Min_cycle;Max_cycle;Signal;HPM_P1;HPM_P2
2022/11/22 00:00:31;;;;;;;33.72;18.40;;;;;;;;;;5073972;28;20473;-75
2022/11/22 00:02:57;;;;;;;29.25;18.30;;;;;;;;;;5053960;28;20058;-75
2022/11/22 00:05:23;;;;;;;31.67;17.00;;;;;;;;;;5064411;28;20459;-75
2022/11/22 00:07:49;;;;;;;24.42;15.13;;;;;;;;;;5051916;28;20048;-75
2022/11/22 00:10:15;;;;;;;30.30;17.70;;;;;;;;;;5074609;28;20404;-75
2022/11/22 00:12:42;;;;;;;29.83;16.65;;;;;;;;;;5071894;28;20119;-75
2022/11/22 00:15:08;;;;;;;27.05;14.48;;;;;;;;;;5044938;28;20130;-74
2022/11/22 00:17:35;;;;;;;28.60;15.88;;;;;;;;;;5071318;28;20070;-75
2022/11/22 00:20:05;;;;;;;26.10;15.02;;;;;;;;;;5051479;28;20056;-74
2022/11/22 00:22:31;;;;;;;28.40;17.63;;;;;;;;;;5071730;28;20040;-75
2022/11/22 00:24:57;;;;;;;25.55;15.93;;;;;;;;;;5054232;28;20471;-75
2022/11/22 00:27:23;;;;;;;29.33;16.75;;;;;;;;;;5069158;28;20056;-75
2022/11/22 00:29:49;;;;;;;27.58;16.02;;;;;;;;;;5044472;28;20037;-74
2022/11/22 00:32:15;;;;;;;35.25;18.38;;;;;;;;;;5068874;28;20086;-74
2022/11/22 00:34:41;;;;;;;30.42;17.30;;;;;;;;;;5071992;28;20056;-74
2022/11/22 00:37:07;;;;;;;34.92;18.83;;;;;;;;;;5068668;28;20114;-74
2022/11/22 00:39:33;;;;;;;34.97;18.55;;;;;;;;;;5069722;28;20052;-74
2022/11/22 00:41:59;;;;;;;33.67;18.63;;;;;;;;;;5051547;28;20049;-73
2022/11/22 00:44:26;;;;;;;30.90;17.95;;;;;;;;;;5069173;28;20049;-74
2022/11/22 00:46:52;;;;;;;24.73;15.00;;;;;;;;;;5064585;28;20124;-73
2022/11/22 00:49:18;;;;;;;26.95;15.27;;;;;;;;;;5053103;28;20076;-74
2022/11/22 00:51:44;;;;;;;26.67;15.98;;;;;;;;;;5052591;28;20135;-74
2022/11/22 00:54:10;;;;;;;24.77;16.13;;;;;;;;;;5046353;28;20377;-74
2022/11/22 00:56:36;;;;;;;24.92;14.00;;;;;;;;;;5051950;28;20047;-74
2022/11/22 00:59:02;;;;;;;21.75;14.05;;;;;;;;;;5051664;28;20044;-74
2022/11/22 01:01:28;;;;;;;27.48;15.52;;;;;;;;;;5048621;28;20102;-74
2022/11/22 01:03:54;;;;;;;25.60;15.45;;;;;;;;;;5067156;28;20041;-74
2022/11/22 01:06:20;;;;;;;25.20;15.63;;;;;;;;;;5068996;28;20051;-74
2022/11/22 01:08:46;;;;;;;25.63;14.43;;;;;;;;;;5070147;28;20115;-74
2022/11/22 01:11:13;;;;;;;26.73;16.15;;;;;;;;;;5053834;28;20499;-74
2022/11/22 01:13:39;;;;;;;23.45;14.00;;;;;;;;;;5070650;28;20048;-73
2022/11/22 01:16:06;;;;;;;24.08;13.98;;;;;;;;;;5070018;28;20161;-73
2022/11/22 01:18:33;;;;;;;22.80;14.82;;;;;;;;;;5051668;28;20040;-73
2022/11/22 01:20:59;;;;;;;23.65;14.48;;;;;;;;;;5055746;28;20463;-73
2022/11/22 01:23:25;;;;;;;24.85;13.93;;;;;;;;;;5044483;28;20072;-74
2022/11/22 01:25:51;;;;;;;19.63;13.93;;;;;;;;;;5052664;28;20067;-73
2022/11/22 01:28:17;;;;;;;23.48;15.23;;;;;;;;;;5050329;28;20036;-73
2022/11/22 01:30:44;;;;;;;22.77;15.35;;;;;;;;;;5051418;28;20045;-73
2022/11/22 01:33:10;;;;;;;23.48;14.65;;;;;;;;;;5067070;28;20036;-74
2022/11/22 01:35:36;;;;;;;22.98;14.23;;;;;;;;;;5053121;28;20051;-73
2022/11/22 01:38:02;;;;;;;24.77;14.38;;;;;;;;;;5067902;28;20044;-74
2022/11/22 01:40:28;;;;;;;23.75;14.77;;;;;;;;;;5050179;28;20044;-73
2022/11/22 01:42:56;;;;;;;25.60;13.27;;;;;;;;;;5051004;28;20385;-73
2022/11/22 01:45:31;;;;;;;24.25;14.35;;;;;;;;;;5049852;28;20045;-73
2022/11/22 01:48:01;;;;;;;27.60;14.98;;;;;;;;;;5082328;28;20144;-73
2022/11/22 01:50:29;;;;;;;24.48;14.32;;;;;;;;;;5050947;28;20059;-74
2022/11/22 01:52:56;;;;;;;22.23;13.10;;;;;;;;;;5069943;28;20452;-73
2022/11/22 01:55:23;;;;;;;22.85;14.52;;;;;;;;;;5068713;28;20200;-73
2022/11/22 01:57:49;;;;;;;24.88;15.27;;;;;;;;;;5062167;28;20548;-74
2022/11/22 02:00:15;;;;;;;23.73;14.77;;;;;;;;;;5048717;28;20049;-74
2022/11/22 02:02:43;;;;;;;20.85;13.68;;;;;;;;;;5049807;28;20115;-73
2022/11/22 02:05:12;;;;;;;19.80;14.00;;;;;;;;;;5047488;28;20093;-73
2022/11/22 02:07:42;;;;;;;22.40;14.25;;;;;;;;;;5051014;28;20683;-73
2022/11/22 02:10:09;;;;;;;21.20;14.90;;;;;;;;;;5050886;28;20052;-73
2022/11/22 02:12:35;;;;;;;21.40;13.98;;;;;;;;;;5050985;28;20041;-72
2022/11/22 02:15:02;;;;;;;20.52;13.32;;;;;;;;;;5067579;28;20059;-74
2022/11/22 02:17:28;;;;;;;20.08;14.20;;;;;;;;;;5051885;28;20048;-73
2022/11/22 02:19:55;;;;;;;19.08;13.85;;;;;;;;;;5064515;28;20044;-73
2022/11/22 02:22:27;;;;;;;24.08;13.88;;;;;;;;;;5048965;28;20385;-73
2022/11/22 02:24:53;;;;;;;18.73;13.43;;;;;;;;;;5050685;28;20048;-73
2022/11/22 02:27:22;;;;;;;21.30;13.55;;;;;;;;;;5050433;28;20048;-73
2022/11/22 02:29:48;;;;;;;21.52;14.10;;;;;;;;;;5050232;28;20048;-73
2022/11/22 02:32:14;;;;;;;21.45;15.02;;;;;;;;;;5077463;28;20408;-73
2022/11/22 02:34:42;;;;;;;21.33;14.95;;;;;;;;;;5081383;28;20056;-73
2022/11/22 02:37:08;;;;;;;23.35;14.52;;;;;;;;;;5083245;28;20065;-73
2022/11/22 02:39:34;;;;;;;19.92;14.32;;;;;;;;;;5066415;28;20056;-74
2022/11/22 02:42:00;;;;;;;21.38;14.45;;;;;;;;;;5052080;28;20086;-73
2022/11/22 02:44:26;;;;;;;20.55;14.50;;;;;;;;;;5051367;28;20173;-74
2022/11/22 02:46:54;;;;;;;18.38;15.68;;;;;;;;;;5045114;28;20048;-73
2022/11/22 02:49:21;;;;;;;20.70;14.57;;;;;;;;;;5049762;28;20041;-73
2022/11/22 02:51:47;;;;;;;23.55;14.90;;;;;;;;;;5070809;28;20044;-73
2022/11/22 02:54:13;;;;;;;22.85;15.45;;;;;;;;;;5060744;28;20044;-73
2022/11/22 02:56:39;;;;;;;20.75;13.95;;;;;;;;;;5065493;28;20083;-73
2022/11/22 02:59:05;;;;;;;21.33;15.00;;;;;;;;;;5046943;28;20048;-73
2022/11/22 03:01:31;;;;;;;22.80;14.88;;;;;;;;;;5082494;28;20054;-73
2022/11/22 03:03:57;;;;;;;19.75;14.80;;;;;;;;;;5046653;28;20053;-74
2022/11/22 03:06:23;;;;;;;22.20;15.15;;;;;;;;;;5051592;28;20396;-73
2022/11/22 03:08:49;;;;;;;18.75;14.45;;;;;;;;;;5068556;28;20040;-73
2022/11/22 03:11:15;;;;;;;18.77;14.25;;;;;;;;;;5066967;28;20040;-73
2022/11/22 03:13:41;;;;;;;20.33;15.50;;;;;;;;;;5052212;28;20047;-74
2022/11/22 03:16:07;;;;;;;27.55;15.40;;;;;;;;;;5047668;28;20044;-73
2022/11/22 03:18:34;;;;;;;19.63;14.30;;;;;;;;;;5056154;28;20087;-73
2022/11/22 03:21:04;;;;;;;21.63;14.98;;;;;;;;;;5063456;28;20044;-73
2022/11/22 03:23:30;;;;;;;23.08;15.70;;;;;;;;;;5047644;28;20451;-73
2022/11/22 03:25:56;;;;;;;20.30;14.43;;;;;;;;;;5046540;28;20053;-73
2022/11/22 03:28:22;;;;;;;20.90;14.68;;;;;;;;;;5047427;28;20041;-73
2022/11/22 03:30:48;;;;;;;19.98;15.23;;;;;;;;;;5081643;28;20392;-73
2022/11/22 03:33:14;;;;;;;23.40;15.48;;;;;;;;;;5050785;28;20090;-73
2022/11/22 03:35:40;;;;;;;23.13;15.40;;;;;;;;;;5048332;28;20064;-73
2022/11/22 03:38:06;;;;;;;22.50;15.23;;;;;;;;;;5043619;28;20088;-73
2022/11/22 03:40:33;;;;;;;19.85;15.52;;;;;;;;;;5065918;28;20049;-73
2022/11/22 03:43:00;;;;;;;20.77;14.90;;;;;;;;;;5065498;28;20084;-73
2022/11/22 03:45:26;;;;;;;20.10;16.13;;;;;;;;;;5050400;28;20744;-73
2022/11/22 03:47:52;;;;;;;20.90;15.32;;;;;;;;;;5050021;28;20047;-73
2022/11/22 03:50:18;;;;;;;20.05;15.60;;;;;;;;;;5048910;28;20373;-73
2022/11/22 03:52:44;;;;;;;22.35;15.90;;;;;;;;;;5067010;28;20098;-75
2022/11/22 03:55:10;;;;;;;22.85;16.48;;;;;;;;;;5048284;28;20032;-74
2022/11/22 03:57:36;;;;;;;22.45;15.73;;;;;;;;;;5048159;28;20088;-74
2022/11/22 04:00:03;;;;;;;22.33;16.50;;;;;;;;;;5068153;28;20044;-74
2022/11/22 04:02:29;;;;;;;21.65;15.55;;;;;;;;;;5072667;28;20065;-74
2022/11/22 04:04:55;;;;;;;23.58;15.95;;;;;;;;;;5042029;28;20095;-73
2022/11/22 04:07:21;;;;;;;24.42;15.82;;;;;;;;;;5049353;28;21147;-74
2022/11/22 04:09:47;;;;;;;19.85;15.77;;;;;;;;;;5064337;28;20123;-74
2022/11/22 04:12:13;;;;;;;21.30;16.33;;;;;;;;;;5049203;28;20132;-74
2022/11/22 04:17:39;;;;;;;25.77;16.35;;;;;;;;;;5079640;28;20088;-74
2022/11/22 04:22:57;;;;;;;24.25;16.30;;;;;;;;;;5074247;28;20074;-74
2022/11/22 04:25:24;;;;;;;22.70;15.80;;;;;;;;;;5043710;28;20041;-74
2022/11/22 04:27:50;;;;;;;23.75;16.88;;;;;;;;;;5068908;28;20044;-74
2022/11/22 04:30:16;;;;;;;24.58;16.23;;;;;;;;;;5068625;28;20443;-74
2022/11/22 04:32:45;;;;;;;22.13;15.75;;;;;;;;;;5076463;28;20064;-74
2022/11/22 04:35:15;;;;;;;24.85;16.15;;;;;;;;;;5052173;28;20040;-74
2022/11/22 04:37:41;;;;;;;27.45;16.27;;;;;;;;;;5053461;28;20135;-74
2022/11/22 04:40:08;;;;;;;27.77;15.93;;;;;;;;;;5046266;28;20047;-74
2022/11/22 04:45:19;;;;;;;23.67;17.02;;;;;;;;;;5072235;28;20086;-74
2022/11/22 04:48:00;;;;;;;23.60;16.65;;;;;;;;;;5057658;28;20044;-74
2022/11/22 04:53:13;;;;;;;22.95;15.27;;;;;;;;;;5076381;28;20047;-73
2022/11/22 04:55:39;;;;;;;27.00;16.45;;;;;;;;;;5050643;28;20056;-74
2022/11/22 04:58:05;;;;;;;21.98;15.50;;;;;;;;;;5047441;28;20071;-74
2022/11/22 05:00:31;;;;;;;24.23;16.25;;;;;;;;;;5066967;28;20036;-74
2022/11/22 05:02:58;;;;;;;18.83;15.35;;;;;;;;;;5053549;28;20044;-74
2022/11/22 05:05:24;;;;;;;24.98;16.30;;;;;;;;;;5052770;28;20476;-74
2022/11/22 05:07:50;;;;;;;28.13;15.80;;;;;;;;;;5049539;28;20109;-74
2022/11/22 05:10:16;;;;;;;22.17;16.70;;;;;;;;;;5050260;28;20053;-74
2022/11/22 05:12:45;;;;;;;23.42;15.95;;;;;;;;;;5075857;28;20040;-74
2022/11/22 05:15:11;;;;;;;22.13;15.68;;;;;;;;;;5055252;28;20092;-74
2022/11/22 05:17:40;;;;;;;25.77;16.15;;;;;;;;;;5065606;28;20174;-74
2022/11/22 05:20:09;;;;;;;22.58;14.52;;;;;;;;;;5051511;28;20380;-74
2022/11/22 05:25:20;;;;;;;20.20;13.38;;;;;;;;;;5081655;28;20048;-74
2022/11/22 05:27:46;;;;;;;21.33;13.05;;;;;;;;;;5051063;28;20064;-74
2022/11/22 05:30:12;;;;;;;17.63;12.20;;;;;;;;;;5052491;28;20131;-74
2022/11/22 05:32:38;;;;;;;20.25;12.48;;;;;;;;;;5072214;28;20087;-74
2022/11/22 05:35:04;;;;;;;23.27;11.48;;;;;;;;;;5050104;28;20047;-74
2022/11/22 05:37:30;;;;;;;18.35;11.15;;;;;;;;;;5049645;28;20047;-74
2022/11/22 05:39:56;;;;;;;17.52;11.55;;;;;;;;;;5054088;28;20044;-74
2022/11/22 05:42:22;;;;;;;18.70;11.20;;;;;;;;;;5071077;28;20053;-74
2022/11/22 05:44:48;;;;;;;17.42;10.98;;;;;;;;;;5072326;28;20040;-74
2022/11/22 05:47:14;;;;;;;16.27;10.10;;;;;;;;;;5052811;28;20052;-74
2022/11/22 05:49:40;;;;;;;16.00;9.55;;;;;;;;;;5052347;28;20040;-74
2022/11/22 05:52:07;;;;;;;19.75;9.95;;;;;;;;;;5076553;28;20044;-74
2022/11/22 05:54:33;;;;;;;18.67;10.85;;;;;;;;;;5084210;28;20564;-74
2022/11/22 05:56:59;;;;;;;21.75;10.27;;;;;;;;;;5054610;28;20165;-74
2022/11/22 05:59:25;;;;;;;16.27;9.55;;;;;;;;;;5082074;28;20049;-74
2022/11/22 06:01:51;;;;;;;15.98;9.40;;;;;;;;;;5050270;28;20078;-74
2022/11/22 06:04:17;;;;;;;20.13;9.45;;;;;;;;;;5066984;28;20047;-74
2022/11/22 06:06:46;;;;;;;18.20;9.40;;;;;;;;;;5069645;28;20049;-74
2022/11/22 06:09:12;;;;;;;19.50;9.13;;;;;;;;;;5077493;28;20385;-74
2022/11/22 06:11:38;;;;;;;20.48;9.57;;;;;;;;;;5070123;28;20404;-74
2022/11/22 06:14:04;;;;;;;16.85;9.27;;;;;;;;;;5083041;28;20131;-74
2022/11/22 06:16:30;;;;;;;16.63;9.20;;;;;;;;;;5083899;28;20051;-74
2022/11/22 06:18:56;;;;;;;18.92;9.40;;;;;;;;;;5077803;28;20047;-74
2022/11/22 06:21:23;;;;;;;21.98;10.18;;;;;;;;;;5051110;28;20438;-74
2022/11/22 06:23:49;;;;;;;17.70;9.00;;;;;;;;;;5048988;28;20074;-74
2022/11/22 06:26:17;;;;;;;17.08;8.65;;;;;;;;;;5079346;28;20052;-74
2022/11/22 06:28:43;;;;;;;13.80;8.68;;;;;;;;;;5077016;28;20044;-74
2022/11/22 06:31:17;;;;;;;14.05;8.55;;;;;;;;;;5062189;28;20476;-74
2022/11/22 06:33:43;;;;;;;15.15;8.48;;;;;;;;;;5081628;28;20047;-74
2022/11/22 06:36:14;;;;;;;13.90;9.23;;;;;;;;;;5076102;28;20056;-74
2022/11/22 06:38:41;;;;;;;17.23;10.15;;;;;;;;;;5066587;28;20083;-74
2022/11/22 06:41:08;;;;;;;17.50;9.18;;;;;;;;;;5046433;28;20480;-74
2022/11/22 06:43:35;;;;;;;17.40;8.48;;;;;;;;;;5050434;28;20052;-74
2022/11/22 06:46:02;;;;;;;13.65;8.27;;;;;;;;;;5052649;28;20040;-74
2022/11/22 06:48:32;;;;;;;20.25;8.63;;;;;;;;;;5066274;28;20044;-74
2022/11/22 06:51:02;;;;;;;17.33;7.68;;;;;;;;;;5067767;28;20040;-73
2022/11/22 06:53:31;;;;;;;14.80;8.38;;;;;;;;;;5080198;28;20056;-74
2022/11/22 06:56:05;;;;;;;15.35;7.43;;;;;;;;;;5080702;28;20103;-74
2022/11/22 06:58:31;;;;;;;;;;;;;;;;;;5072108;28;20119;-74
2022/11/22 07:01:00;;;;;;;15.52;5.75;;;;;;;;;;5063234;28;20083;-73
2022/11/22 07:03:27;;;;;;;11.02;5.20;;;;;;;;;;5066816;28;20786;-74
2022/11/22 07:05:53;;;;;;;11.27;4.90;;;;;;;;;;5069938;28;20037;-74
2022/11/22 07:08:19;;;;;;;12.70;4.75;;;;;;;;;;5067248;28;20178;-74
2022/11/22 07:10:45;;;;;;;10.80;4.70;;;;;;;;;;5059012;28;20043;-74
2022/11/22 07:13:11;;;;;;;12.23;4.65;;;;;;;;;;5083015;28;20052;-74
2022/11/22 07:15:37;;;;;;;12.00;5.05;;;;;;;;;;5085638;28;20047;-74
2022/11/22 07:18:03;;;;;;;12.73;5.47;;;;;;;;;;5061596;28;20595;-73
2022/11/22 07:20:29;;;;;;;15.85;5.82;;;;;;;;;;5063094;28;20131;-74
2022/11/22 07:22:58;;;;;;;16.02;6.25;;;;;;;;;;5083629;28;20493;-74
2022/11/22 07:25:24;;;;;;;13.73;6.10;;;;;;;;;;5055850;28;20072;-75
2022/11/22 07:27:53;;;;;;;13.43;5.95;;;;;;;;;;5056234;28;20053;-73
2022/11/22 07:30:19;;;;;;;13.60;5.90;;;;;;;;;;5066428;28;20111;-74
2022/11/22 07:32:48;;;;;;;16.13;6.50;;;;;;;;;;5065440;28;20057;-74
2022/11/22 07:35:14;;;;;;;14.77;6.68;;;;;;;;;;5057587;28;20033;-80
2022/11/22 07:37:40;;;;;;;14.85;7.10;;;;;;;;;;5069434;28;20134;-74
2022/11/22 07:40:07;;;;;;;14.73;6.18;;;;;;;;;;5070914;28;20056;-74
2022/11/22 07:42:33;;;;;;;13.77;6.03;;;;;;;;;;5064266;28;20090;-74
2022/11/22 07:44:59;;;;;;;13.77;6.53;;;;;;;;;;5081357;28;20049;-74
2022/11/22 07:47:25;;;;;;;14.95;6.88;;;;;;;;;;5082619;28;20075;-74
2022/11/22 07:49:51;;;;;;;13.23;7.68;;;;;;;;;;5048421;28;20050;-74
2022/11/22 07:52:17;;;;;;;14.88;8.45;;;;;;;;;;5075294;28;20444;-74
2022/11/22 07:54:43;;;;;;;13.32;6.88;;;;;;;;;;5053952;28;20028;-74
2022/11/22 07:57:09;;;;;;;13.07;7.82;;;;;;;;;;5054432;28;20443;-74
2022/11/22 07:59:35;;;;;;;12.77;9.10;;;;;;;;;;5074982;28;20075;-75
2022/11/22 08:02:01;;;;;;;13.95;9.48;;;;;;;;;;5076070;28;20032;-74
2022/11/22 08:04:27;;;;;;;14.52;9.45;;;;;;;;;;5073271;28;20040;-74
2022/11/22 08:06:53;;;;;;;16.08;9.45;;;;;;;;;;5087114;28;20458;-74
2022/11/22 08:09:19;;;;;;;18.55;9.52;;;;;;;;;;5075287;28;20033;-74
2022/11/22 08:11:45;;;;;;;14.48;9.55;;;;;;;;;;5072400;28;20408;-74
2022/11/22 08:14:11;;;;;;;11.15;7.55;;;;;;;;;;5072757;28;20405;-74
2022/11/22 08:16:37;;;;;;;13.95;8.55;;;;;;;;;;5055723;28;20048;-74
2022/11/22 08:19:04;;;;;;;13.48;8.70;;;;;;;;;;5053721;28;20048;-74
2022/11/22 08:21:30;;;;;;;16.20;8.02;;;;;;;;;;5075153;28;20055;-75
2022/11/22 08:23:59;;;;;;;13.73;8.38;;;;;;;;;;5056300;28;20041;-75
2022/11/22 08:26:25;;;;;;;14.00;8.68;;;;;;;;;;5087359;28;20063;-74
2022/11/22 08:28:52;;;;;;;15.68;9.55;;;;;;;;;;5071637;28;20037;-75
2022/11/22 08:31:19;;;;;;;16.42;9.65;;;;;;;;;;5071619;28;20171;-75
2022/11/22 08:33:45;;;;;;;11.63;7.15;;;;;;;;;;5072526;28;20098;-75
2022/11/22 08:36:11;;;;;;;14.73;8.10;;;;;;;;;;5074447;28;20045;-75
2022/11/22 08:38:37;;;;;;;14.65;8.93;;;;;;;;;;5056575;28;20048;-75
2022/11/22 08:41:05;;;;;;;12.55;8.07;;;;;;;;;;5073240;28;20040;-75
2022/11/22 08:43:31;;;;;;;13.10;8.70;;;;;;;;;;5073455;28;20553;-75
2022/11/22 08:45:57;;;;;;;13.95;8.95;;;;;;;;;;5054356;28;20075;-75
2022/11/22 08:48:24;;;;;;;14.48;8.77;;;;;;;;;;5081783;28;20131;-75
2022/11/22 08:50:57;;;;;;;14.20;8.43;;;;;;;;;;5058628;28;20041;-75
2022/11/22 08:53:24;;;;;;;11.90;8.30;;;;;;;;;;5086302;28;20412;-75
2022/11/22 08:55:50;;;;;;;12.88;9.00;;;;;;;;;;5080897;28;20043;-73
2022/11/22 08:58:16;;;;;;;13.05;8.88;;;;;;;;;;5055535;28;20047;-74
2022/11/22 09:00:43;;;;;;;14.75;9.10;;;;;;;;;;5053182;28;20044;-75
2022/11/22 09:03:09;;;;;;;12.32;8.52;;;;;;;;;;5055345;28;20052;-75
2022/11/22 09:05:35;;;;;;;17.23;8.52;;;;;;;;;;5054687;28;20122;-75
2022/11/22 09:08:01;;;;;;;12.35;8.35;;;;;;;;;;5072187;28;20397;-75
2022/11/22 09:10:27;;;;;;;13.73;8.25;;;;;;;;;;5085386;28;20061;-75
2022/11/22 09:12:53;;;;;;;11.75;7.18;;;;;;;;;;5054946;28;20123;-74
2022/11/22 09:15:19;;;;;;;12.57;7.88;;;;;;;;;;5071159;28;20076;-74
2022/11/22 09:17:48;;;;;;;13.40;7.00;;;;;;;;;;5087114;28;20040;-75
2022/11/22 09:20:14;;;;;;;10.60;6.72;;;;;;;;;;5046923;28;20047;-75
2022/11/22 09:22:40;;;;;;;10.27;6.07;;;;;;;;;;5056161;28;20396;-75
2022/11/22 09:25:06;;;;;;;8.07;6.28;;;;;;;;;;5086413;28;20045;-74
2022/11/22 09:27:33;;;;;;;10.93;6.38;;;;;;;;;;5054238;28;20051;-75
2022/11/22 09:29:59;;;;;;;9.00;6.05;;;;;;;;;;5072221;28;20407;-74
2022/11/22 09:32:25;;;;;;;8.20;5.95;;;;;;;;;;5071314;28;20048;-75
2022/11/22 09:34:51;;;;;;;9.93;5.88;;;;;;;;;;5071346;28;20047;-75
2022/11/22 09:37:18;;;;;;;8.63;5.72;;;;;;;;;;5072255;28;20086;-75
2022/11/22 09:39:47;;;;;;;7.78;5.47;;;;;;;;;;5082838;28;20052;-74
2022/11/22 09:42:32;;;;;;;12.50;7.38;;;;;;;;;;5050507;28;20040;-75
2022/11/22 09:45:10;;;;;;;8.63;5.20;;;;;;;;;;5050894;28;20045;-74
2022/11/22 09:47:54;;;;;;;8.50;5.30;;;;;;;;;;5052952;28;20370;-74
2022/11/22 09:50:20;;;;;;;8.95;5.85;;;;;;;;;;5081461;28;20048;-73
2022/11/22 09:52:46;;;;;;;7.45;5.72;;;;;;;;;;5082714;28;20040;-73
2022/11/22 09:55:26;;;;;;;10.73;5.35;;;;;;;;;;5049207;28;20485;-74
2022/11/22 09:58:12;;;;;;;10.63;5.80;;;;;;;;;;5049765;28;20075;-74
2022/11/22 10:00:40;;;;;;;7.95;5.20;;;;;;;;;;5049065;28;20053;-74
2022/11/22 10:03:31;;;;;;;11.02;5.28;;;;;;;;;;5051879;28;20052;-74
2022/11/22 10:06:02;;;;;;;10.57;4.95;;;;;;;;;;5052020;28;20049;-73
2022/11/22 10:08:36;;;;;;;8.82;5.65;;;;;;;;;;5082464;28;20102;-74
2022/11/22 10:11:04;;;;;;;9.80;5.45;;;;;;;;;;5081242;28;20049;-73
2022/11/22 10:13:36;;;;;;;12.77;4.85;;;;;;;;;;5084554;28;20041;-74
2022/11/22 10:16:11;;;;;;;9.05;5.38;;;;;;;;;;5047364;28;20049;-74
2022/11/22 10:18:56;;;;;;;8.95;4.97;;;;;;;;;;5050379;28;20049;-74
2022/11/22 10:21:22;;;;;;;8.80;5.00;;;;;;;;;;5050744;28;20439;-74
2022/11/22 10:23:48;;;;;;;8.00;4.90;;;;;;;;;;5080733;28;20037;-74
2022/11/22 10:26:19;;;;;;;8.93;5.20;;;;;;;;;;5051629;28;20182;-73
2022/11/22 10:28:56;;;;;;;8.77;4.50;;;;;;;;;;5044508;28;20195;-73
2022/11/22 10:31:22;;;;;;;10.30;4.72;;;;;;;;;;5049558;28;20056;-74
2022/11/22 10:33:55;;;;;;;7.70;4.45;;;;;;;;;;5081797;28;20048;-74
2022/11/22 10:36:39;;;;;;;9.57;4.55;;;;;;;;;;5081391;28;20114;-74
2022/11/22 10:39:14;;;;;;;6.10;4.28;;;;;;;;;;5062316;28;20053;-73
2022/11/22 10:41:53;;;;;;;6.97;4.75;;;;;;;;;;5069664;28;20056;-74
2022/11/22 10:44:37;;;;;;;6.88;4.18;;;;;;;;;;5083936;28;20040;-73
2022/11/22 10:47:12;;;;;;;10.77;4.68;;;;;;;;;;5084232;28;20048;-74
2022/11/22 10:50:00;;;;;;;8.23;4.55;;;;;;;;;;5070320;28;20076;-74
2022/11/22 10:52:39;;;;;;;8.52;4.53;;;;;;;;;;5084086;28;20048;-74
2022/11/22 10:55:18;;;;;;;6.13;4.20;;;;;;;;;;5069240;28;20032;-73
2022/11/22 10:58:03;;;;;;;12.25;4.85;;;;;;;;;;5081659;28;20052;-73
2022/11/22 11:00:30;;;;;;;8.07;4.28;;;;;;;;;;5082261;28;20049;-74
2022/11/22 11:03:13;;;;;;;7.60;3.97;;;;;;;;;;5052146;28;20480;-73
2022/11/22 11:05:45;;;;;;;6.22;4.18;;;;;;;;;;5083538;28;20098;-74
2022/11/22 11:08:17;;;;;;;8.98;4.38;;;;;;;;;;5083459;28;20484;-74
2022/11/22 11:10:43;;;;;;;6.25;3.88;;;;;;;;;;5072344;28;20033;-74
2022/11/22 11:13:26;;;;;;;8.98;4.57;;;;;;;;;;5064717;28;20115;-73
2022/11/22 11:15:56;;;;;;;5.07;4.20;;;;;;;;;;5068016;28;20044;-73
2022/11/22 11:18:22;;;;;;;7.75;4.47;;;;;;;;;;5083962;28;20036;-74
2022/11/22 11:20:50;;;;;;;7.95;4.82;;;;;;;;;;5047103;28;20098;-73
2022/11/22 11:23:16;;;;;;;7.10;4.60;;;;;;;;;;5069344;28;20051;-74
2022/11/22 11:25:43;;;;;;;6.85;4.60;;;;;;;;;;5069998;28;20076;-74
2022/11/22 11:28:12;;;;;;;11.63;4.57;;;;;;;;;;5068595;28;20074;-74
2022/11/22 11:30:43;;;;;;;5.85;4.28;;;;;;;;;;5054379;28;20056;-74
2022/11/22 11:33:37;;;;;;;5.35;4.20;;;;;;;;;;5073230;28;20508;-74
2022/11/22 11:36:06;;;;;;;9.40;4.53;;;;;;;;;;5049731;28;20048;-74
2022/11/22 11:38:35;;;;;;;6.82;4.00;;;;;;;;;;5055921;28;20504;-74
2022/11/22 11:41:34;;;;;;;9.98;4.40;;;;;;;;;;5072795;28;20192;-73
2022/11/22 11:44:04;;;;;;;7.75;3.75;;;;;;;;;;5019980;28;20121;-73
2022/11/22 11:46:50;;;;;;;7.00;4.18;;;;;;;;;;5085739;28;20044;-74
2022/11/22 11:49:17;;;;;;;6.95;3.80;;;;;;;;;;5049653;28;20081;-74
2022/11/22 11:51:43;;;;;;;7.30;3.78;;;;;;;;;;5071726;28;20040;-74
2022/11/22 11:54:09;;;;;;;5.30;3.80;;;;;;;;;;5053695;28;20048;-74
2022/11/22 11:56:43;;;;;;;7.40;3.80;;;;;;;;;;5052962;28;20385;-74
2022/11/22 11:59:18;;;;;;;7.68;4.28;;;;;;;;;;5086464;28;20048;-74
2022/11/22 12:01:48;;;;;;;7.07;4.03;;;;;;;;;;5070791;28;20071;-73
2022/11/22 12:04:18;;;;;;;9.88;4.15;;;;;;;;;;5083434;28;20047;-74
2022/11/22 12:06:52;;;;;;;10.85;4.45;;;;;;;;;;5075478;28;20090;-74
2022/11/22 12:09:28;;;;;;;6.55;4.00;;;;;;;;;;5086304;28;20040;-74
2022/11/22 12:11:56;;;;;;;7.55;4.68;;;;;;;;;;5070848;28;20040;-73
2022/11/22 12:14:25;;;;;;;6.35;4.43;;;;;;;;;;5052469;28;20048;-74
2022/11/22 12:16:53;;;;;;;6.57;3.90;;;;;;;;;;5086020;28;20048;-74
2022/11/22 12:19:22;;;;;;;5.82;4.07;;;;;;;;;;5067986;28;20045;-73
2022/11/22 12:21:57;;;;;;;8.07;3.65;;;;;;;;;;5083908;28;20438;-74
2022/11/22 12:24:29;;;;;;;7.90;4.15;;;;;;;;;;5083766;28;20103;-74
2022/11/22 12:26:55;;;;;;;7.10;3.97;;;;;;;;;;5069998;28;20087;-73
2022/11/22 12:29:21;;;;;;;5.10;3.78;;;;;;;;;;5085476;28;20048;-74
2022/11/22 12:31:51;;;;;;;7.53;3.67;;;;;;;;;;5085888;28;20055;-74
2022/11/22 12:34:36;;;;;;;6.88;3.80;;;;;;;;;;5085834;28;20056;-73
2022/11/22 12:37:05;;;;;;;5.47;3.53;;;;;;;;;;5053227;28;20052;-74
2022/11/22 12:39:32;;;;;;;8.00;4.20;;;;;;;;;;5052317;28;20060;-74
2022/11/22 12:42:09;;;;;;;7.10;4.00;;;;;;;;;;5071345;28;20057;-74
2022/11/22 12:44:37;;;;;;;6.70;3.85;;;;;;;;;;5069643;28;20559;-74
2022/11/22 12:47:12;;;;;;;7.80;3.90;;;;;;;;;;5052146;28;20414;-73
2022/11/22 12:49:48;;;;;;;10.30;4.20;;;;;;;;;;5052173;28;20403;-74
2022/11/22 12:52:17;;;;;;;8.10;3.95;;;;;;;;;;5051442;28;20391;-73
2022/11/22 12:54:56;;;;;;;7.00;3.85;;;;;;;;;;5069322;28;20072;-74
2022/11/22 12:57:25;;;;;;;8.65;3.92;;;;;;;;;;5087078;28;20048;-73
2022/11/22 13:00:02;;;;;;;4.88;3.50;;;;;;;;;;5052723;28;20037;-74
2022/11/22 13:02:38;;;;;;;6.40;3.95;;;;;;;;;;5084883;28;20102;-74
2022/11/22 13:05:19;;;;;;;10.68;3.75;;;;;;;;;;5049933;28;20040;-74
2022/11/22 13:07:45;;;;;;;5.88;3.85;;;;;;;;;;5045317;28;20049;-74
2022/11/22 13:10:22;;;;;;;7.30;3.60;;;;;;;;;;5081647;28;20040;-73
2022/11/22 13:12:48;;;;;;;6.35;3.90;;;;;;;;;;5080400;28;20044;-74
2022/11/22 13:15:17;;;;;;;5.03;3.70;;;;;;;;;;5081253;28;20036;-74
2022/11/22 13:17:43;;;;;;;4.57;3.38;;;;;;;;;;5068396;28;20489;-73
2022/11/22 13:20:17;;;;;;;7.47;3.63;;;;;;;;;;5083493;28;20040;-74
2022/11/22 13:22:57;;;;;;;8.82;3.90;;;;;;;;;;5067766;28;20044;-74
2022/11/22 13:25:32;;;;;;;7.32;4.10;;;;;;;;;;5084748;28;20052;-74
2022/11/22 13:28:00;;;;;;;6.05;3.40;;;;;;;;;;5070447;28;20083;-73
2022/11/22 13:30:27;;;;;;;6.55;3.70;;;;;;;;;;5085403;28;20654;-74
2022/11/22 13:32:55;;;;;;;7.03;3.72;;;;;;;;;;5084694;28;20047;-73
2022/11/22 13:35:37;;;;;;;8.18;3.45;;;;;;;;;;5051674;28;20464;-73
2022/11/22 13:38:12;;;;;;;7.40;4.30;;;;;;;;;;5070779;28;20101;-74
2022/11/22 13:40:41;;;;;;;6.30;3.72;;;;;;;;;;5084914;28;20052;-74
2022/11/22 13:43:13;;;;;;;10.27;3.70;;;;;;;;;;5053209;28;20053;-73
2022/11/22 13:45:53;;;;;;;7.60;3.42;;;;;;;;;;5052272;28;20548;-74
2022/11/22 13:48:42;;;;;;;6.38;3.47;;;;;;;;;;5084900;28;20040;-73
2022/11/22 13:51:13;;;;;;;6.00;3.65;;;;;;;;;;5012294;28;20055;-74
2022/11/22 13:53:42;;;;;;;7.43;3.20;;;;;;;;;;5055177;28;20059;-74
2022/11/22 13:56:14;;;;;;;5.85;3.42;;;;;;;;;;5049966;28;20044;-73
2022/11/22 13:58:40;;;;;;;5.05;3.33;;;;;;;;;;5085732;28;20053;-74
2022/11/22 14:01:25;;;;;;;5.60;3.38;;;;;;;;;;5070957;28;20044;-74
2022/11/22 14:03:51;;;;;;;7.70;3.22;;;;;;;;;;5080376;28;20090;-74
2022/11/22 14:06:23;;;;;;;6.80;3.72;;;;;;;;;;5077472;28;20040;-74
2022/11/22 14:09:09;;;;;;;4.85;3.33;;;;;;;;;;5070450;28;20052;-74
2022/11/22 14:11:40;;;;;;;5.22;4.10;;;;;;;;;;5076116;28;20040;-74
2022/11/22 14:14:11;;;;;;;5.28;3.33;;;;;;;;;;5069799;28;20143;-73
2022/11/22 14:16:45;;;;;;;5.07;3.42;;;;;;;;;;5068089;28;20135;-74
2022/11/22 14:19:26;;;;;;;6.78;2.95;;;;;;;;;;5070563;28;20190;-74
2022/11/22 14:21:55;;;;;;;4.88;3.10;;;;;;;;;;5073503;28;20049;-74
2022/11/22 14:24:51;;;;;;;6.05;3.15;;;;;;;;;;5084657;28;20551;-74
2022/11/22 14:27:28;;;;;;;5.43;3.20;;;;;;;;;;5082354;28;20052;-74
2022/11/22 14:30:13;;;;;;;4.43;3.00;;;;;;;;;;5066277;28;20040;-74
2022/11/22 14:32:41;;;;;;;6.97;3.10;;;;;;;;;;5083617;28;20076;-74
2022/11/22 14:35:16;;;;;;;8.88;3.65;;;;;;;;;;5046966;28;20064;-74
2022/11/22 14:37:57;;;;;;;3.40;3.10;;;;;;;;;;5068673;28;20064;-74
2022/11/22 14:40:34;;;;;;;4.25;3.10;;;;;;;;;;5068332;28;20072;-74
2022/11/22 14:43:04;;;;;;;5.30;3.03;;;;;;;;;;5070094;28;20040;-74
2022/11/22 14:45:40;;;;;;;6.93;3.17;;;;;;;;;;5049692;28;20093;-74
2022/11/22 14:48:15;;;;;;;7.47;3.00;;;;;;;;;;5049514;28;20105;-74
2022/11/22 14:50:42;;;;;;;3.90;2.67;;;;;;;;;;5076777;28;20396;-74
2022/11/22 14:53:18;;;;;;;5.35;2.95;;;;;;;;;;5083937;28;20219;-74